Wednesday, May 04, 2016
17:27 UTC
  |  Log In   |  Register Free
Airport Search:

Clinton-Sampson County Airport
(KCTZ)

Clinton-Sampson County Airport Diagram
No Airport Diagram Available

FAA data valid effective Mar 31 2016 - May 26 2016 (unless otherwise noted).

 
 
 
 
 
 
 
 
 
 
 
 
 
 
Current Aviation Weather for KCTZ

Weather Summary


The most recent METAR observation for CTZ was updated at: 12:55 UTC
METAR for KCTZ is not available. Closest METAR is for KDPL
KCTZ  (most recent observation was updatred at 41:71 UTC)
041710Z AUTO 27005KT 10SM SCT022 21/17 A2966 RMK AO2 T02120166

KDPL  (18.9 nm SW)   (most recent observation was updated at 41:72 UTC)
041720Z AUTO 00000KT 10SM BKN019 OVC028 21/16 A2966 RMK AO2 T02110159

KEYF  (24.8 nm NE)   (most recent observation was updated at 41:72 UTC)
041720Z AUTO 27005KT 10SM SCT030 SCT047 BKN075 24/16 A2965 RMK AO2 T02370156

TAF for KCTZ is not available.
KFAY  (25.3 nm SE)   (most recent observation was updatred at 41:72 UTC)
041720Z 0418/0518 36005KT P6SM BKN050 FM051300 VRB05KT P6SM VCSH BKN035 OVC060 TEMPO 0514/0518 2SM SHRA BKN025


KGSB  (29.6 nm SW)   (most recent observation was updatred at 41:51 UTC)
AMD 041517Z 0415/0518 30009KT 9999 BKN010 QNH2964INS TEMPO 0415/0417 BKN015 OVC020 BECMG 0416/0417 27010G15KT 9999 SCT035 QNH2961INS BECMG 0423/0424 VRB06KT 9999 SCT040 QNH2965INS BECMG 0514/0515 20009KT 8000 -SHRA BKN050 OVC070 QNH2970INS TX26/0420Z TN13/0511Z AMD 041517


KFBG  (29.6 nm SE)   (most recent observation was updatred at 41:70 UTC)
041700Z 0417/0523 33010KT 9999 FEW060 QNH2960INS BECMG 0423/0424 27006KT 9999 SKC QNH2956INS BECMG 0508/0509 31007KT 9999 VCSH SCT040 QNH2955INS BECMG 0514/0515 31012KT 8000 -SHRA BKN030 QNH2958INS BECMG 0517/0518 31012G18KT 8000 -SHRA BKN030 QNH2957INS TEMPO 0518/0523 6000 -TSRA BKN025CB TX24/0420Z TN13/0509Z
GlobalAir.com is loading additional information.
 Current Weather at CTZ
69.0 F° (20.6 C°)

Northeast winds at 4.6 mph
Pressure:
29.69 in
Humidity:
80%
Wind:
Northeast at 4.6 mph
Dew Point:
62.8 F° (17.1 C°)
Visibility:
10.00 mi
CTZ NOAA Radar




Find All Airport Services Find A Hotel Find A Rental Car Find A Golf Course Find A Restaurant $100 Hamburger



Airport Weather Forecast for KCTZ

Translated METAR for KCTZ (1710 UTC)
METAR:
KCTZ 041710Z AUTO 27005KT 10SM SCT022 21/17 A2966 RMK AO2 T02120166
Conditions at:
KCTZ (Clinton-Sampson County, NC) observed 1710 UTC 04 May 2016
Temperature:
21°C (69.8°F)
Dewpoint:
17°C (62.6°F) [RH = 77.9]
Pressure:
29.66 inches Hg (1004.4 mb)
Winds:
from the W (270 degrees) at 5.8 mph (5 knots: 2.6 m/s)
Visibility:
10 mile(s)
Ceiling:
at least 12,000 feet AGL
Clouds:
Scattered Clouds at 2,200 feet AGL
Remarks:
site is un-manned
site is automated and HAS a precipitation sensor

Translated TAF for KFAY (Fayetteville Rgnl/Grannis Field, NC) (1720 UTC)
TAF text:
KFAY 041720Z 0418/0518 36005KT P6SM BKN050
Forecast period:
Wednesday May 04 2016 18:00 UTC - Thursday May 05 2016 18:00 UTC
Forecast type:
FROM: standard forecast or significant change
Winds:
from the N (360 degrees) at 5.8 mph (5 knots: 2.6 m/s)
Visibility:
6 or more mile(s) (9.7+ km)
Ceiling:
5,000 feet AGL
Clouds:
Broken Cloud Cover at 5,000 feet AGL
Weather:
no significant weather observed at this time
TAF text:
FM051300 VRB05KT P6SM VCSH BKN035 OVC060
Forecast period:
Thursday May 05 2016 13:00 UTC - Thursday May 05 2016 18:00 UTC
Forecast type:
FROM: standard forecast or significant change
Winds:
variable wind direction at 5.8 mph (5 knots: 2.6 m/s)
Visibility:
6 or more mile(s) (9.7+ km)
Ceiling:
3,500 feet AGL
Clouds:
Broken Cloud Cover at 3,500 feet AGL
Overcast Skies at 6,000 feet AGL
Weather:
Moderate In Vicinity Shower(s)
TAF text:
0514/0518 2SM SHRA BKN025
Forecast period:
Friday May 06 2016 14:00 UTC - Friday May 06 2016 18:00 UTC
Forecast type:
FROM: standard forecast or significant change
Winds:
Visibility:
2 mile(s) (3.2 km)
Ceiling:
2,500 feet AGL
Clouds:
Broken Cloud Cover at 2,500 feet AGL
Weather:
Moderate Shower(s) Rain
FBO's on the Field
FBO Company Facility Photos Services Transportation Aviation Fuel Prices: Prices include tax
Catering Weather Repair Courtesy Rental Type 100LL JetA JetA+ MOGAS 8087
 
Clinton Flying Service

This FBO has not yet been rated
FS:Shell
Last Updated: May-04
Login to update fuel prices
SS:
Contact Clinton Flying ServiceMore FBO Information
 
Add another FBO Facility Photos Catering Weather Repair Courtesy Rental Type 100LL JetA JetA+ MOGAS 8087
Services Transportation Aviation Fuel Prices: Prices include tax


model-print
model-print
model-print
model-print